Time;durP1;ratioP1;P1;durP2;ratioP2;P2;SDS_P1;SDS_P2;PMS_P1;PMS_P2;Temp;Humidity;BMP_temperature;BMP_pressure;BME280_temperature;BME280_humidity;BME280_pressure;Samples;Min_cycle;Max_cycle;Signal;HPM_P1;HPM_P2
2022/04/17 00:00:42;;;;;;;7.30;4.43;;;;;;;-145.69;75.80;73339.00;5074532;28;20456;-75
2022/04/17 00:03:09;;;;;;;8.40;4.73;;;;;;;-145.69;76.58;73344.97;5074802;28;20206;-75
2022/04/17 00:05:36;;;;;;;12.93;5.37;;;;;;;-145.69;76.69;73341.00;5074589;28;20206;-74
2022/04/17 00:08:04;;;;;;;10.17;5.63;;;;;;;-145.69;76.75;73337.00;5074795;28;20199;-74
2022/04/17 00:10:31;;;;;;;14.00;6.40;;;;;;;-145.69;77.42;73333.03;5074613;28;20206;-75
2022/04/17 00:12:57;;;;;;;12.03;5.87;;;;;;;-145.69;77.56;73333.03;5074724;28;20565;-75
2022/04/17 00:15:24;;;;;;;11.27;6.23;;;;;;;-145.69;78.34;73344.97;5074435;28;20665;-75
2022/04/17 00:17:51;;;;;;;15.87;5.97;;;;;;;-145.69;78.67;73311.13;5074113;28;20242;-74
2022/04/17 00:20:18;;;;;;;13.70;6.10;;;;;;;-145.69;77.12;73317.09;5074891;28;20206;-74
2022/04/17 00:22:46;;;;;;;12.00;6.23;;;;;;;-145.69;77.97;73321.09;5074396;28;20202;-74
2022/04/17 00:25:14;;;;;;;13.50;6.40;;;;;;;-145.69;77.64;73313.13;5074434;28;20617;-74
2022/04/17 00:27:40;;;;;;;11.00;6.50;;;;;;;-145.69;78.45;73325.06;5074321;28;20234;-74
2022/04/17 00:30:08;;;;;;;12.67;5.73;;;;;;;-145.69;78.17;73333.03;5074181;28;20547;-74
2022/04/17 00:32:36;;;;;;;11.40;5.63;;;;;;;-145.69;78.58;73325.06;5074410;28;20199;-74
2022/04/17 00:35:04;;;;;;;12.47;6.27;;;;;;;-145.69;78.05;73325.06;5074437;28;20230;-74
2022/04/17 00:37:31;;;;;;;12.63;5.00;;;;;;;-145.69;78.00;73325.06;5074346;28;20214;-75
2022/04/17 00:39:59;;;;;;;11.23;4.97;;;;;;;-145.69;77.67;73333.03;5074363;28;20397;-75
2022/04/17 00:42:25;;;;;;;10.47;4.23;;;;;;;-145.69;76.33;73323.06;5074044;28;20203;-74
2022/04/17 00:44:52;;;;;;;7.57;3.93;;;;;;;-145.69;75.10;73311.13;5073999;28;20203;-74
2022/04/17 00:47:18;;;;;;;7.73;4.10;;;;;;;-145.69;75.42;73319.09;5073996;28;20199;-75
2022/04/17 00:49:46;;;;;;;9.03;4.10;;;;;;;-145.69;75.55;73325.06;5073967;28;20229;-75
2022/04/17 00:52:13;;;;;;;6.97;4.20;;;;;;;-145.69;76.16;73333.03;5056412;28;20758;-75
2022/04/17 00:54:43;;;;;;;7.93;4.17;;;;;;;-145.69;76.77;73341.00;5053804;28;20681;-74
2022/04/17 00:57:12;;;;;;;7.37;4.43;;;;;;;-145.69;76.79;73342.97;5053862;28;20199;-75
2022/04/17 00:59:40;;;;;;;7.10;4.00;;;;;;;-145.69;75.28;73342.97;5060462;28;20230;-75
2022/04/17 01:02:07;;;;;;;12.67;5.27;;;;;;;-145.69;75.69;73333.03;5073919;28;20226;-75
2022/04/17 01:04:33;;;;;;;10.30;4.53;;;;;;;-145.69;75.64;73342.97;5073721;28;20207;-75
2022/04/17 01:07:00;;;;;;;9.67;5.07;;;;;;;-145.69;74.20;73337.00;5073535;28;20202;-74
2022/04/17 01:09:27;;;;;;;9.57;3.93;;;;;;;-145.69;74.69;73327.06;5073168;28;20199;-75
2022/04/17 01:11:54;;;;;;;7.60;4.07;;;;;;;-145.69;75.62;73352.94;5073427;28;20668;-74
2022/04/17 01:14:22;;;;;;;10.90;4.17;;;;;;;-145.69;76.98;73364.88;5073572;28;20230;-74
2022/04/17 01:16:48;;;;;;;6.97;4.20;;;;;;;-145.69;76.80;73356.91;5073539;28;20227;-74
2022/04/17 01:19:15;;;;;;;13.00;4.87;;;;;;;-145.69;76.78;73341.00;5073446;28;20199;-76
2022/04/17 01:21:46;;;;;;;8.17;4.53;;;;;;;-145.69;76.93;73342.97;5073508;28;20195;-74
2022/04/17 01:27:00;;;;;;;6.87;4.07;;;;;;;-145.69;76.89;73335.03;5073220;28;20191;-74
2022/04/17 01:29:31;;;;;;;9.80;4.13;;;;;;;-145.69;76.63;73341.00;5072915;28;20645;-74
2022/04/17 01:31:58;;;;;;;8.40;4.40;;;;;;;-145.69;78.71;73354.94;5073293;28;20241;-74
2022/04/17 01:34:24;;;;;;;9.63;4.53;;;;;;;-145.69;78.35;73348.97;5073193;28;20268;-74
2022/04/17 01:36:52;;;;;;;9.43;4.23;;;;;;;-145.69;77.17;73339.00;5073180;28;20201;-74
2022/04/17 01:39:20;;;;;;;7.87;4.33;;;;;;;-145.69;79.02;73348.97;5072939;28;20226;-74
2022/04/17 01:41:47;;;;;;;8.10;4.27;;;;;;;-145.69;78.70;73348.97;5073014;28;20213;-74
2022/04/17 01:44:16;;;;;;;8.83;4.33;;;;;;;-145.69;78.06;73339.00;5073071;28;20237;-75
2022/04/17 01:46:43;;;;;;;9.30;4.40;;;;;;;-145.69;77.56;73346.97;5072991;28;20206;-74
2022/04/17 01:49:10;;;;;;;8.95;4.55;;;;;;;-145.69;77.17;73331.03;5071688;28;20951;-75
2022/04/17 01:51:38;;;;;;;6.70;3.90;;;;;;;-145.69;78.14;73337.00;5072484;28;20550;-76
2022/04/17 01:54:07;;;;;;;11.53;4.60;;;;;;;-145.69;77.99;73337.00;5072969;28;20222;-75
2022/04/17 01:56:34;;;;;;;9.63;4.00;;;;;;;-145.69;77.89;73354.94;5073164;28;20198;-75
2022/04/17 01:59:01;;;;;;;8.43;4.17;;;;;;;-145.69;76.94;73356.91;5073010;28;20199;-75
2022/04/17 02:01:27;;;;;;;6.67;4.20;;;;;;;-145.69;78.31;73358.91;5072936;28;20293;-76
2022/04/17 02:03:54;;;;;;;7.50;4.10;;;;;;;-145.69;77.99;73364.88;5073008;28;20230;-75
2022/04/17 02:06:20;;;;;;;7.03;4.17;;;;;;;-145.69;77.09;73360.91;5072728;28;20210;-76
2022/04/17 02:08:47;;;;;;;7.10;4.03;;;;;;;-145.69;77.73;73364.88;5073154;28;20202;-75
2022/04/17 02:11:15;;;;;;;7.10;3.70;;;;;;;-145.69;78.97;73386.78;5072908;28;20203;-75
2022/04/17 02:13:42;;;;;;;7.00;3.90;;;;;;;-145.69;79.80;73390.75;5072170;28;20219;-75
2022/04/17 02:16:09;;;;;;;12.40;4.20;;;;;;;-145.69;79.79;73392.75;5072692;28;20317;-75
2022/04/17 02:18:35;;;;;;;7.20;3.97;;;;;;;-145.69;79.40;73396.72;5072683;28;20554;-76
2022/04/17 02:21:02;;;;;;;5.63;3.53;;;;;;;-145.69;78.89;73378.81;5073338;28;20206;-76
2022/04/17 02:23:28;;;;;;;6.90;3.90;;;;;;;-145.69;78.77;73368.88;5076854;28;20210;-76
2022/04/17 02:25:55;;;;;;;5.93;3.60;;;;;;;-145.69;78.73;73366.88;5076590;28;20205;-75
2022/04/17 02:28:23;;;;;;;7.20;3.50;;;;;;;-145.69;78.14;73362.88;5076787;28;20202;-76
2022/04/17 02:30:49;;;;;;;5.97;3.67;;;;;;;-145.69;78.77;73366.88;5076937;28;20206;-75
2022/04/17 02:33:16;;;;;;;14.40;3.90;;;;;;;-145.69;78.98;73362.88;5076367;28;20207;-75
2022/04/17 02:35:42;;;;;;;6.47;3.67;;;;;;;-145.69;78.18;73380.81;5076409;28;20697;-75
2022/04/17 02:38:09;;;;;;;5.23;3.37;;;;;;;-145.69;78.76;73360.91;5076552;28;20205;-75
2022/04/17 02:40:36;;;;;;;6.17;4.07;;;;;;;-145.69;79.20;73378.81;5076571;28;20277;-76
2022/04/17 02:43:03;;;;;;;6.87;3.43;;;;;;;-145.69;79.29;73384.78;5076233;28;20282;-75
2022/04/17 02:45:30;;;;;;;6.87;4.13;;;;;;;-145.69;78.92;73382.81;5076284;28;20202;-75
2022/04/17 02:47:57;;;;;;;7.17;3.47;;;;;;;-145.69;80.65;73396.72;5076158;28;20195;-76
2022/04/17 02:50:24;;;;;;;5.37;3.40;;;;;;;-145.69;80.19;73392.75;5076458;28;20235;-75
2022/04/17 02:52:55;;;;;;;4.63;3.37;;;;;;;-145.69;80.00;73404.69;5076350;28;20199;-75
2022/04/17 02:55:22;;;;;;;5.70;3.67;;;;;;;-145.69;81.42;73402.72;5076260;28;20284;-75
2022/04/17 02:57:49;;;;;;;5.17;3.50;;;;;;;-145.69;78.41;73376.81;5076289;28;20199;-77
2022/04/17 03:00:16;;;;;;;7.33;3.70;;;;;;;-145.69;79.16;73380.81;5065868;28;20203;-76
2022/04/17 03:05:39;;;;;;;5.53;2.73;;;;;;;-145.69;79.07;73372.84;5056138;28;20285;-75
2022/04/17 03:08:07;;;;;;;4.43;2.40;;;;;;;-145.69;80.63;73394.75;5056201;28;20199;-76
2022/04/17 03:10:34;;;;;;;4.27;3.03;;;;;;;-145.69;80.49;73396.72;5055838;28;20242;-75
2022/04/17 03:13:01;;;;;;;6.23;3.50;;;;;;;-145.69;79.80;73386.78;5069994;28;20556;-75
2022/04/17 03:15:28;;;;;;;5.97;3.58;;;;;;;-145.69;78.99;73364.88;5074711;28;20457;-75
2022/04/17 03:17:55;;;;;;;7.17;3.57;;;;;;;-145.69;78.50;73356.91;5074726;28;20221;-75
2022/04/17 03:20:22;;;;;;;7.87;3.53;;;;;;;-145.69;78.27;73352.94;5074650;28;20625;-75
2022/04/17 03:22:49;;;;;;;6.40;3.13;;;;;;;-145.69;77.36;73348.97;5074702;28;20202;-75
2022/04/17 03:25:16;;;;;;;7.10;3.07;;;;;;;-145.69;77.96;73341.00;5074444;28;20285;-75
2022/04/17 03:27:46;;;;;;;4.37;2.90;;;;;;;-145.69;77.59;73348.97;5074521;28;20199;-75
2022/04/17 03:30:14;;;;;;;6.60;3.03;;;;;;;-145.69;76.91;73342.97;5074550;28;20204;-75
2022/04/17 03:32:41;;;;;;;4.30;3.00;;;;;;;-145.69;75.64;73309.13;5073629;28;20198;-75
2022/04/17 03:35:10;;;;;;;6.00;3.10;;;;;;;-145.69;75.78;73323.06;5074312;28;20716;-75
2022/04/17 03:37:37;;;;;;;5.97;3.40;;;;;;;-145.69;76.19;73323.06;5074106;28;20650;-74
2022/04/17 03:40:05;;;;;;;3.70;2.80;;;;;;;-145.69;77.18;73329.03;5074127;28;20293;-74
2022/04/17 03:42:32;;;;;;;7.53;3.33;;;;;;;-145.69;76.46;73323.06;5074109;28;20206;-74
2022/04/17 03:44:58;;;;;;;5.97;2.90;;;;;;;-145.69;75.90;73317.09;5074323;28;20209;-75
2022/04/17 03:47:25;;;;;;;6.67;2.77;;;;;;;-145.69;75.61;73301.19;5073870;28;20603;-74
2022/04/17 03:49:51;;;;;;;6.73;3.10;;;;;;;-145.69;75.42;73297.19;5074263;28;20203;-74
2022/04/17 03:52:19;;;;;;;5.07;2.50;;;;;;;-145.69;75.93;73291.22;5074008;28;20554;-74
2022/04/17 03:54:46;;;;;;;4.57;2.90;;;;;;;-145.69;74.65;73295.19;5073760;28;20616;-75
2022/04/17 03:57:13;;;;;;;5.57;2.83;;;;;;;-145.69;75.20;73293.22;5074056;28;20289;-74
2022/04/17 03:59:39;;;;;;;5.83;3.10;;;;;;;-145.69;75.25;73299.19;5074177;28;20199;-74
2022/04/17 04:02:07;;;;;;;4.73;2.87;;;;;;;-145.69;74.74;73283.25;5073453;28;20201;-74
2022/04/17 04:04:34;;;;;;;4.43;2.97;;;;;;;-145.69;74.82;73295.19;5073810;28;20665;-74
2022/04/17 04:07:00;;;;;;;5.17;2.83;;;;;;;-145.69;75.57;73301.19;5073634;28;20666;-75
2022/04/17 04:09:28;;;;;;;5.23;3.33;;;;;;;-145.69;75.33;73295.19;5073285;28;20203;-74
2022/04/17 04:11:55;;;;;;;7.73;2.77;;;;;;;-145.69;75.65;73309.13;5073870;28;20216;-75
2022/04/17 04:14:21;;;;;;;4.30;2.83;;;;;;;-145.69;75.77;73309.13;5073662;28;20242;-74
2022/04/17 04:16:48;;;;;;;4.90;2.77;;;;;;;-145.69;76.14;73317.09;5030933;28;1230975;-74
2022/04/17 04:19:14;;;;;;;6.57;2.67;;;;;;;-145.69;75.83;73329.03;5074460;28;20206;-74
2022/04/17 04:21:48;;;;;;;4.53;2.60;;;;;;;-145.69;76.63;73333.03;5074235;28;20195;-75
2022/04/17 04:24:15;;;;;;;4.73;2.63;;;;;;;-145.69;76.75;73341.00;5074453;28;20241;-74
2022/04/17 04:26:44;;;;;;;4.33;2.80;;;;;;;-145.69;77.09;73352.94;5074631;28;20229;-75
2022/04/17 04:29:09;;;;;;;4.03;2.97;;;;;;;-145.69;76.73;73341.00;5074044;28;20218;-74
2022/04/17 04:31:36;;;;;;;5.73;3.03;;;;;;;-145.69;76.52;73352.94;5073523;28;20929;-75
2022/04/17 04:34:03;;;;;;;6.10;2.80;;;;;;;-145.69;77.41;73362.88;5073486;28;20241;-75
2022/04/17 04:36:30;;;;;;;8.13;3.03;;;;;;;-145.69;76.69;73358.91;5074120;28;20294;-74
2022/04/17 04:38:56;;;;;;;5.83;2.80;;;;;;;-145.69;77.41;73364.88;5074307;28;20222;-75
2022/04/17 04:41:23;;;;;;;8.80;3.13;;;;;;;-145.69;76.93;73368.88;5074305;28;20205;-75
2022/04/17 04:43:50;;;;;;;7.53;2.70;;;;;;;-145.69;75.87;73348.97;5073414;28;20600;-75
2022/04/17 04:46:17;;;;;;;5.07;2.80;;;;;;;-145.69;77.32;73360.91;5074021;28;20199;-75
2022/04/17 04:51:29;;;;;;;4.70;2.87;;;;;;;-145.69;77.53;73348.97;5070334;28;20256;-74
2022/04/17 04:53:56;;;;;;;7.23;3.17;;;;;;;-145.69;77.72;73364.88;5054143;28;20277;-74
2022/04/17 04:56:24;;;;;;;6.07;3.13;;;;;;;-145.69;78.12;73364.88;5053949;28;20653;-74
2022/04/17 04:58:52;;;;;;;4.83;2.80;;;;;;;-145.69;78.81;73352.94;5053805;28;20650;-74
2022/04/17 05:01:18;;;;;;;6.30;3.03;;;;;;;-145.69;76.53;73344.97;5063823;28;20206;-74
2022/04/17 05:03:45;;;;;;;5.37;3.20;;;;;;;-145.69;76.02;73335.03;5073936;28;20203;-74
2022/04/17 05:06:12;;;;;;;4.70;3.10;;;;;;;-145.69;76.06;73329.03;5073589;28;20206;-74
2022/04/17 05:08:38;;;;;;;3.20;2.50;;;;;;;-145.69;77.01;73337.00;5073605;28;20209;-74
2022/04/17 05:11:05;;;;;;;4.93;2.80;;;;;;;-145.69;76.56;73333.03;5073524;28;20209;-74
2022/04/17 05:13:31;;;;;;;5.83;2.60;;;;;;;-145.69;75.42;73317.09;5073480;28;20206;-74
2022/04/17 05:15:59;;;;;;;4.37;2.90;;;;;;;-145.69;74.61;73317.09;5073156;28;20247;-74
2022/04/17 05:18:26;;;;;;;6.77;3.13;;;;;;;-145.69;75.58;73315.13;5073552;28;20194;-74
2022/04/17 05:20:53;;;;;;;8.90;2.97;;;;;;;-145.69;74.55;73305.16;5073621;28;20570;-75
2022/04/17 05:23:22;;;;;;;3.77;2.57;;;;;;;-145.69;75.50;73299.19;5073383;28;20298;-74
2022/04/17 05:25:53;;;;;;;7.00;3.33;;;;;;;-145.69;73.88;73293.22;5073577;28;20207;-74
2022/04/17 05:28:19;;;;;;;8.03;2.67;;;;;;;-145.69;75.07;73289.22;5072968;28;20195;-74
2022/04/17 05:30:46;;;;;;;4.80;2.70;;;;;;;-145.69;74.53;73285.25;5073181;28;20198;-74
2022/04/17 05:33:14;;;;;;;5.30;2.70;;;;;;;-145.69;73.55;73273.31;5073143;28;20673;-74
2022/04/17 05:35:40;;;;;;;6.10;2.83;;;;;;;-145.69;74.37;73259.38;5073158;28;20235;-74
2022/04/17 05:38:09;;;;;;;7.50;3.27;;;;;;;-145.69;73.40;73245.44;5073153;28;20658;-74
2022/04/17 05:40:37;;;;;;;4.00;2.90;;;;;;;-145.69;73.35;73241.44;5072909;28;20199;-74
2022/04/17 05:43:04;;;;;;;7.73;3.13;;;;;;;-145.69;74.29;73255.38;5072898;28;20199;-74
2022/04/17 05:45:32;;;;;;;6.73;3.03;;;;;;;-145.69;73.45;73251.41;5073142;28;20202;-74
2022/04/17 05:47:59;;;;;;;5.50;2.73;;;;;;;-145.69;72.51;73245.44;5073181;28;20238;-74
2022/04/17 05:50:27;;;;;;;5.10;2.60;;;;;;;-145.69;71.41;73235.47;5073264;28;20293;-74
2022/04/17 05:52:54;;;;;;;4.23;2.80;;;;;;;-145.69;71.96;73229.50;5073163;28;20198;-74
2022/04/17 05:55:21;;;;;;;4.37;2.63;;;;;;;-145.69;71.30;73225.53;5072680;28;20601;-74
2022/04/17 05:57:47;;;;;;;4.00;2.40;;;;;;;-145.69;70.20;73211.59;5073237;28;20220;-74
2022/04/17 06:00:16;;;;;;;6.13;2.57;;;;;;;-145.69;70.83;73195.66;5073191;28;20205;-75
2022/04/17 06:02:43;;;;;;;6.83;2.70;;;;;;;-145.69;71.22;73191.69;5072911;28;20194;-74
2022/04/17 06:05:10;;;;;;;5.77;2.83;;;;;;;-145.69;71.15;73191.69;5072798;28;20202;-74
2022/04/17 06:07:38;;;;;;;5.63;2.50;;;;;;;-145.69;69.21;73161.81;5072828;28;20222;-75
2022/04/17 06:10:07;;;;;;;4.80;2.73;;;;;;;-145.69;68.77;73151.88;5072704;28;20198;-74
2022/04/17 06:12:34;;;;;;;6.00;2.57;;;;;;;-145.69;70.97;73137.94;5072937;28;20234;-74
2022/04/17 06:15:00;;;;;;;3.33;2.40;;;;;;;-145.69;68.01;73129.97;5072960;28;20222;-74
2022/04/17 06:17:27;;;;;;;5.27;2.37;;;;;;;-145.69;68.02;73129.97;5072661;28;20234;-75
2022/04/17 06:19:53;;;;;;;3.70;2.20;;;;;;;-145.69;66.85;73118.03;5072852;28;20194;-74
2022/04/17 06:22:20;;;;;;;4.77;2.20;;;;;;;-145.69;65.31;73106.09;5072901;28;20198;-74
2022/04/17 06:24:49;;;;;;;4.43;2.50;;;;;;;-145.69;65.78;73086.19;5072493;28;20742;-75
2022/04/17 06:27:15;;;;;;;5.37;2.33;;;;;;;-145.69;66.67;73084.19;5072459;28;20543;-75
2022/04/17 06:29:42;;;;;;;4.33;2.53;;;;;;;-145.69;64.94;73056.31;5072521;28;20672;-74
2022/04/17 06:32:09;;;;;;;6.50;2.67;;;;;;;-145.69;63.00;73050.34;5072711;28;20205;-74
2022/04/17 06:34:37;;;;;;;5.37;2.80;;;;;;;-145.69;64.87;73032.44;5072516;28;20661;-73
2022/04/17 06:37:04;;;;;;;4.50;2.63;;;;;;;-145.69;64.47;73028.44;5072393;28;20222;-75
2022/04/17 06:39:30;;;;;;;4.33;2.27;;;;;;;-145.69;62.87;73016.50;5072700;28;20199;-75
2022/04/17 06:41:58;;;;;;;3.90;2.20;;;;;;;-145.69;61.29;73018.50;5072225;28;20217;-75
2022/04/17 06:44:25;;;;;;;3.57;2.30;;;;;;;-145.69;62.29;73010.53;5072566;28;20225;-76
2022/04/17 06:46:51;;;;;;;4.57;2.43;;;;;;;-145.69;59.93;72996.59;5072365;28;20668;-75
2022/04/17 06:49:17;;;;;;;4.57;2.43;;;;;;;-145.69;60.37;72982.66;5072356;28;20209;-75
2022/04/17 06:51:44;;;;;;;5.70;2.80;;;;;;;-145.69;58.60;72978.69;5072340;28;20206;-74
2022/04/17 06:54:10;;;;;;;3.60;2.20;;;;;;;-145.69;58.84;72970.72;5072337;28;20671;-74
2022/04/17 06:56:37;;;;;;;4.27;2.10;;;;;;;-145.69;59.79;72956.78;5070662;28;20597;-73
2022/04/17 06:59:05;;;;;;;4.37;2.30;;;;;;;-145.69;57.57;72948.81;5070234;28;20573;-74
2022/04/17 07:01:38;;;;;;;4.70;2.07;;;;;;;-145.69;56.55;72930.91;5072364;28;20230;-74
2022/04/17 07:04:11;;;;;;;4.73;2.60;;;;;;;-145.69;57.00;72924.94;5072277;28;20209;-75
2022/04/17 07:06:40;;;;;;;5.07;1.97;;;;;;;-145.69;57.60;72903.03;5072318;28;20213;-75
2022/04/17 07:09:06;;;;;;;3.10;2.10;;;;;;;-145.69;57.95;72887.09;5075647;28;20658;-74
2022/04/17 07:11:32;;;;;;;7.80;2.03;;;;;;;-145.69;55.89;72883.13;5075436;28;20248;-75
2022/04/17 07:13:59;;;;;;;2.20;2.00;;;;;;;-145.69;56.22;72845.31;5075813;28;20205;-74
2022/04/17 07:16:27;;;;;;;3.37;2.33;;;;;;;-145.69;56.13;72847.28;5075498;28;20243;-74
2022/04/17 07:18:58;;;;;;;3.20;2.13;;;;;;;-145.69;54.99;72837.34;5075585;28;20653;-74
2022/04/17 07:21:28;;;;;;;3.80;2.17;;;;;;;-145.69;54.22;72827.38;5075793;28;20210;-74
2022/04/17 07:23:56;;;;;;;5.43;2.27;;;;;;;-145.69;54.77;72807.47;5075635;28;20210;-74
2022/04/17 07:26:22;;;;;;;3.13;2.13;;;;;;;-145.69;54.96;72799.53;5075551;28;20201;-73
2022/04/17 07:28:49;;;;;;;5.77;2.43;;;;;;;-145.69;53.35;72787.56;5075587;28;20209;-74
2022/04/17 07:31:18;;;;;;;2.90;2.03;;;;;;;-145.69;54.40;72779.63;5075346;28;20297;-74
2022/04/17 07:33:46;;;;;;;3.90;2.27;;;;;;;-145.69;52.77;72761.69;5075686;28;20199;-74
2022/04/17 07:36:13;;;;;;;2.27;1.83;;;;;;;-145.69;52.17;72759.72;5075471;28;20227;-74
2022/04/17 07:38:40;;;;;;;5.13;2.03;;;;;;;-145.69;51.74;72759.72;5075408;28;20606;-74
2022/04/17 07:41:06;;;;;;;3.77;2.00;;;;;;;-145.69;51.30;72763.69;5074983;28;20661;-73
2022/04/17 07:43:35;;;;;;;3.95;2.22;;;;;;;-145.69;53.38;72743.78;5075288;28;20351;-73
2022/04/17 07:46:02;;;;;;;3.00;2.17;;;;;;;-145.69;51.70;72733.84;5075440;28;20211;-73
2022/04/17 07:48:28;;;;;;;5.87;1.90;;;;;;;-145.69;51.03;72749.75;5075219;28;20202;-73
2022/04/17 07:50:59;;;;;;;5.93;2.40;;;;;;;-145.69;51.71;72729.84;5074961;28;20202;-74
2022/04/17 07:53:27;;;;;;;4.90;2.00;;;;;;;-145.69;53.67;72701.97;5075298;28;20203;-73
2022/04/17 07:55:57;;;;;;;4.90;2.10;;;;;;;-145.69;50.44;72694.03;5074413;28;20222;-74
2022/04/17 07:58:29;;;;;;;2.90;2.07;;;;;;;-145.69;50.71;72694.03;5074976;28;20203;-73
2022/04/17 08:00:58;;;;;;;3.93;2.30;;;;;;;-145.69;50.95;72668.16;5074788;28;20187;-73
2022/04/17 08:03:35;;;;;;;6.77;2.30;;;;;;;-145.69;50.57;72664.16;5075004;28;20237;-74
2022/04/17 08:06:05;;;;;;;3.97;2.20;;;;;;;-145.69;47.65;72644.25;5075008;28;20206;-74
2022/04/17 08:08:32;;;;;;;4.47;1.90;;;;;;;-145.69;49.35;72618.38;5075139;28;20242;-74
2022/04/17 08:10:59;;;;;;;2.10;1.90;;;;;;;-145.69;47.63;72614.41;5074486;28;20264;-74
2022/04/17 08:13:25;;;;;;;4.73;2.10;;;;;;;-145.69;46.39;72596.50;5074524;28;20705;-73
2022/04/17 08:15:52;;;;;;;3.60;1.90;;;;;;;-145.69;46.07;72588.53;5074335;28;20242;-74
2022/04/17 08:18:20;;;;;;;5.63;2.20;;;;;;;-145.69;43.81;72600.47;5074036;28;20199;-73
2022/04/17 08:20:47;;;;;;;2.87;1.70;;;;;;;-145.69;46.63;72574.59;5074068;28;20205;-73
2022/04/17 08:23:15;;;;;;;3.63;1.70;;;;;;;-145.69;43.75;72554.69;5074496;28;20194;-73
2022/04/17 08:25:41;;;;;;;3.23;1.77;;;;;;;-145.69;44.62;72536.78;5074610;28;20225;-73
2022/04/17 08:28:08;;;;;;;3.67;1.67;;;;;;;-145.69;45.09;72512.91;5074709;28;20203;-73
2022/04/17 08:30:37;;;;;;;3.13;1.80;;;;;;;-145.69;43.58;72524.84;5074081;28;20269;-73
2022/04/17 08:33:05;;;;;;;2.50;1.60;;;;;;;-145.69;42.99;72524.84;5074346;28;20236;-73
2022/04/17 08:35:32;;;;;;;2.63;1.33;;;;;;;-145.69;40.87;72536.78;5074094;28;20209;-73
2022/04/17 08:38:00;;;;;;;3.33;1.60;;;;;;;-145.69;42.51;72496.97;5074092;28;20653;-73
2022/04/17 08:40:28;;;;;;;3.67;1.70;;;;;;;-145.69;41.90;72504.94;5074260;28;20214;-73
2022/04/17 08:42:56;;;;;;;4.73;1.30;;;;;;;-145.69;41.28;72481.03;5074289;28;20234;-73
2022/04/17 08:45:24;;;;;;;2.83;1.40;;;;;;;-145.69;40.09;72481.03;5074228;28;20245;-73
2022/04/17 08:47:51;;;;;;;2.40;1.53;;;;;;;-145.69;38.91;72465.13;5074054;28;20194;-73
2022/04/17 08:50:19;;;;;;;2.23;1.20;;;;;;;-145.69;43.92;72433.28;5073950;28;20206;-74
2022/04/17 08:52:47;;;;;;;1.83;1.40;;;;;;;-145.69;40.29;72403.41;5074139;28;20610;-74
2022/04/17 08:55:14;;;;;;;5.27;1.60;;;;;;;-145.69;38.54;72393.47;5073957;28;20202;-74
2022/04/17 08:57:42;;;;;;;1.70;1.20;;;;;;;-145.69;40.81;72369.59;5073749;28;20234;-74
2022/04/17 09:00:11;;;;;;;2.33;1.23;;;;;;;-145.69;39.64;72357.66;5068809;28;20445;-74
2022/04/17 09:02:38;;;;;;;2.10;1.20;;;;;;;-145.69;42.03;72331.78;5073766;28;20441;-74
2022/04/17 09:05:05;;;;;;;3.00;1.27;;;;;;;-145.69;39.72;72321.81;5073537;28;20291;-74
2022/04/17 09:07:39;;;;;;;3.73;1.30;;;;;;;-145.69;40.21;72309.88;5073934;28;20294;-73
2022/04/17 09:10:06;;;;;;;1.47;1.27;;;;;;;-145.69;39.52;72313.84;5073511;28;20245;-74
2022/04/17 09:12:33;;;;;;;2.37;1.43;;;;;;;-145.69;38.61;72333.75;5073834;28;20222;-74
2022/04/17 09:15:01;;;;;;;6.10;1.40;;;;;;;-145.69;38.75;72333.75;5073396;28;20202;-74
2022/04/17 09:17:30;;;;;;;4.07;1.37;;;;;;;-145.69;37.59;72341.72;5073159;28;20234;-74
2022/04/17 09:19:56;;;;;;;2.67;1.37;;;;;;;-145.69;36.59;72353.66;5073139;28;20207;-74
2022/04/17 09:22:23;;;;;;;2.67;1.30;;;;;;;-145.69;36.26;72353.66;5073309;28;20194;-74
2022/04/17 09:24:49;;;;;;;2.33;1.40;;;;;;;-145.69;37.09;72361.63;5072910;28;20207;-74
2022/04/17 09:27:16;;;;;;;2.57;1.13;;;;;;;-145.69;34.63;72347.69;5073307;28;20202;-75
2022/04/17 09:29:42;;;;;;;2.23;1.13;;;;;;;-145.69;35.26;72359.63;5072472;28;20210;-74
2022/04/17 09:32:11;;;;;;;1.27;1.10;;;;;;;-145.69;36.12;72347.69;5073082;28;20195;-74
2022/04/17 09:34:46;;;;;;;1.30;1.20;;;;;;;-145.69;34.05;72365.59;5073401;28;20202;-75
2022/04/17 09:37:14;;;;;;;1.23;0.90;;;;;;;-145.69;34.79;72365.59;5073018;28;20697;-74
2022/04/17 09:39:41;;;;;;;2.57;1.10;;;;;;;-145.69;34.90;72347.69;5073051;28;20214;-74
2022/04/17 09:42:08;;;;;;;1.30;0.90;;;;;;;-145.69;34.91;72301.91;5073047;28;20202;-74
2022/04/17 09:44:36;;;;;;;5.23;1.37;;;;;;;-145.69;35.22;72301.91;5072567;28;20234;-74
2022/04/17 09:47:03;;;;;;;1.27;0.90;;;;;;;-145.69;33.21;72305.91;5073098;28;20204;-74
2022/04/17 09:49:31;;;;;;;2.60;1.27;;;;;;;-145.69;32.20;72319.81;5072949;28;20202;-74
2022/04/17 09:52:07;;;;;;;3.33;1.07;;;;;;;-145.69;32.94;72317.84;5072726;28;20194;-74
2022/04/17 09:54:35;;;;;;;1.30;1.20;;;;;;;-145.69;30.99;72319.81;5073001;28;20199;-74
2022/04/17 09:57:01;;;;;;;3.30;0.90;;;;;;;-145.69;32.68;72305.91;5072608;28;20715;-74
2022/04/17 09:59:28;;;;;;;2.20;1.20;;;;;;;-145.69;34.05;72274.06;5072805;28;20210;-73
2022/04/17 10:01:57;;;;;;;1.33;0.90;;;;;;;-145.69;32.98;72232.25;5072641;28;20198;-74
2022/04/17 10:04:25;;;;;;;2.67;1.03;;;;;;;-145.69;33.11;72214.34;5072763;28;20684;-74
2022/04/17 10:06:54;;;;;;;2.00;1.10;;;;;;;-145.69;32.24;72248.19;5072701;28;20669;-73
2022/04/17 10:09:21;;;;;;;1.73;1.10;;;;;;;-145.69;34.42;72220.31;5072802;28;20221;-74
2022/04/17 10:11:49;;;;;;;1.70;1.10;;;;;;;-145.69;34.46;72198.41;5072728;28;20202;-74
2022/04/17 10:14:16;;;;;;;1.73;1.20;;;;;;;-145.69;32.57;72182.50;5073045;28;20203;-74
2022/04/17 10:16:45;;;;;;;2.23;1.13;;;;;;;-145.69;33.02;72204.38;5072370;28;20685;-74
2022/04/17 10:19:13;;;;;;;4.55;1.10;;;;;;;-145.69;32.83;72184.50;5072688;28;20354;-73
2022/04/17 10:21:40;;;;;;;1.33;1.13;;;;;;;-145.69;35.65;72162.59;5072478;28;20618;-74
2022/04/17 10:24:13;;;;;;;1.23;0.90;;;;;;;-145.69;32.79;72138.72;5072790;28;20211;-74
2022/04/17 10:26:45;;;;;;;1.20;1.00;;;;;;;-145.69;32.77;72118.81;5072810;28;20245;-74
2022/04/17 10:29:14;;;;;;;1.60;0.90;;;;;;;-145.69;32.84;72116.81;5072619;28;20199;-74
2022/04/17 10:31:50;;;;;;;1.43;0.90;;;;;;;-145.69;30.98;72146.69;5072773;28;20198;-74
2022/04/17 10:34:53;;;;;;;1.67;1.30;;;;;;;-145.69;32.44;72142.69;5072879;28;20549;-74
2022/04/17 10:37:43;;;;;;;1.90;1.03;;;;;;;-145.69;31.77;72142.69;5072471;28;20326;-74
2022/04/17 10:40:13;;;;;;;3.53;1.10;;;;;;;-145.69;32.89;72106.88;5072764;28;20225;-74
2022/04/17 10:42:55;;;;;;;2.67;1.20;;;;;;;-145.69;31.20;72114.81;5073901;28;20204;-75
2022/04/17 10:45:23;;;;;;;2.60;1.20;;;;;;;-145.69;30.42;72098.91;5076604;28;20202;-75
2022/04/17 10:48:01;;;;;;;1.67;0.90;;;;;;;-145.69;29.16;72112.84;5076074;28;20709;-75
2022/04/17 10:50:30;;;;;;;1.73;0.90;;;;;;;-145.69;30.00;72092.94;5076003;28;20638;-75
2022/04/17 10:52:57;;;;;;;1.23;1.00;;;;;;;-145.69;31.36;72084.97;5076031;28;20198;-74
2022/04/17 10:55:25;;;;;;;3.50;0.80;;;;;;;-145.69;33.78;72067.06;5064826;28;20257;-75
2022/04/17 10:57:51;;;;;;;2.67;0.97;;;;;;;-145.69;33.05;72039.19;5056075;28;20231;-74
2022/04/17 11:00:26;;;;;;;1.50;0.93;;;;;;;-145.69;31.92;72013.31;5055933;28;20651;-75
2022/04/17 11:02:53;;;;;;;1.50;0.80;;;;;;;-145.69;32.54;72017.31;5055774;28;20646;-74
2022/04/17 11:06:03;;;;;;;2.73;0.90;;;;;;;-145.69;30.58;72023.28;5055888;28;20237;-75
2022/04/17 11:08:22;;;;;;;1.43;1.00;;;;;;;-145.69;30.08;72023.28;5066168;28;20222;-74
2022/04/17 11:10:54;;;;;;;1.50;0.90;;;;;;;-145.69;31.76;72003.38;5068052;28;20820;-74
2022/04/17 11:13:21;;;;;;;1.33;0.80;;;;;;;-145.69;29.83;71979.50;5055711;28;20893;-74
2022/04/17 11:15:52;;;;;;;1.47;0.77;;;;;;;-145.69;30.03;71959.59;5061383;28;20337;-74
2022/04/17 11:18:20;;;;;;;1.13;0.70;;;;;;;-145.69;31.29;71957.59;5060390;28;20234;-74
2022/04/17 11:20:53;;;;;;;1.93;0.90;;;;;;;-145.69;33.23;71935.72;5062210;28;20207;-73
2022/04/17 11:23:58;;;;;;;0.87;0.87;;;;;;;-145.69;31.86;71901.88;5069720;28;20711;-73
2022/04/17 11:26:58;;;;;;;1.17;0.80;;;;;;;-145.69;32.16;71876.00;5066280;28;20192;-73
2022/04/17 11:29:36;;;;;;;0.63;0.63;;;;;;;-145.69;31.48;71889.94;5061732;28;20195;-73